createdAt,value
2018-06-30T00:01:36.891Z,70.85
2018-06-30T00:04:06.250Z,70.53
2018-06-30T00:06:35.590Z,70.82
2018-06-30T00:09:08.148Z,70.40
2018-06-30T00:11:37.884Z,70.60
2018-06-30T00:14:07.250Z,70.47
2018-06-30T00:16:36.597Z,70.03
2018-06-30T00:19:05.966Z,69.95
2018-06-30T00:21:35.338Z,70.47
2018-06-30T00:24:04.400Z,71.22
2018-06-30T00:26:33.748Z,71.33
2018-06-30T00:29:03.094Z,72.21
2018-06-30T00:31:32.433Z,72.20
2018-06-30T00:34:01.480Z,72.84
2018-06-30T00:36:30.942Z,73.01
2018-06-30T00:39:00.285Z,73.15
2018-06-30T00:41:29.616Z,72.79
2018-06-30T00:43:58.990Z,73.56
2018-06-30T00:46:28.321Z,73.43
2018-06-30T00:48:57.696Z,72.77
2018-06-30T00:51:27.019Z,72.91
2018-06-30T00:53:56.347Z,72.67
2018-06-30T00:56:25.687Z,73.36
2018-06-30T00:58:55.072Z,73.36
2018-06-30T01:01:24.458Z,74.75
2018-06-30T01:03:53.791Z,75.22
2018-06-30T01:06:23.116Z,74.81
2018-06-30T01:08:52.460Z,75.82
2018-06-30T01:11:21.794Z,75.95
2018-06-30T01:13:51.154Z,76.04
2018-06-30T01:16:20.476Z,76.56
2018-06-30T01:18:49.798Z,75.63
2018-06-30T01:21:19.393Z,76.45
2018-06-30T01:23:48.724Z,76.48
2018-06-30T01:26:18.092Z,75.26
2018-06-30T01:28:47.403Z,75.38
2018-06-30T01:31:16.773Z,76.21
2018-06-30T01:33:46.123Z,76.05
2018-06-30T01:36:15.524Z,76.82
2018-06-30T01:38:44.870Z,76.34
2018-06-30T01:41:14.172Z,76.71
2018-06-30T01:43:43.496Z,77.67
2018-06-30T01:46:12.850Z,77.90
2018-06-30T01:48:42.272Z,77.38
2018-06-30T01:51:11.628Z,77.81
2018-06-30T01:53:41.002Z,79.21
2018-06-30T01:56:10.317Z,79.62
2018-06-30T01:58:40.001Z,78.88
2018-06-30T02:01:09.718Z,79.45
2018-06-30T02:03:39.365Z,80.21
2018-06-30T02:06:09.077Z,80.77
2018-06-30T02:08:38.380Z,80.43
2018-06-30T02:11:07.940Z,81.29
2018-06-30T02:13:37.301Z,80.89
2018-06-30T02:16:06.661Z,81.14
2018-06-30T02:18:36.021Z,80.85
2018-06-30T02:21:05.395Z,81.01
2018-06-30T02:23:34.723Z,80.83
2018-06-30T02:26:04.097Z,81.48
2018-06-30T02:28:33.439Z,80.98
2018-06-30T02:31:02.785Z,81.02
2018-06-30T02:33:32.149Z,80.35
2018-06-30T02:36:01.500Z,81.01
2018-06-30T02:38:30.949Z,81.34
2018-06-30T02:41:00.288Z,80.80
2018-06-30T02:43:29.611Z,81.50
2018-06-30T02:45:59.016Z,81.30
2018-06-30T02:48:28.358Z,81.08
2018-06-30T02:50:57.709Z,81.47
2018-06-30T02:53:27.071Z,81.48
2018-06-30T02:55:56.413Z,80.88
2018-06-30T02:58:25.774Z,82.24
2018-06-30T03:00:55.124Z,82.46
2018-06-30T03:03:24.479Z,82.46
2018-06-30T03:05:53.908Z,82.71
2018-06-30T03:08:23.239Z,82.65
2018-06-30T03:10:52.659Z,82.68
2018-06-30T03:13:22.001Z,83.21
2018-06-30T03:15:51.361Z,82.49
2018-06-30T03:18:27.358Z,82.66
2018-06-30T03:20:56.747Z,82.60
2018-06-30T03:23:26.144Z,82.51
2018-06-30T03:25:55.463Z,82.72
2018-06-30T03:28:24.785Z,83.05
2018-06-30T03:30:54.140Z,83.10
2018-06-30T03:33:23.457Z,83.26
2018-06-30T03:35:52.781Z,83.27
2018-06-30T03:38:22.103Z,83.17
2018-06-30T03:40:51.420Z,83.60
2018-06-30T03:43:20.951Z,82.65
2018-06-30T03:45:50.045Z,82.50
2018-06-30T03:48:19.383Z,82.82
2018-06-30T03:50:48.745Z,82.73
2018-06-30T03:53:18.056Z,82.82
2018-06-30T03:55:47.409Z,83.02
2018-06-30T03:58:16.746Z,82.88
2018-06-30T04:00:46.072Z,82.11
2018-06-30T04:03:15.427Z,82.26
2018-06-30T04:05:44.748Z,82.69
2018-06-30T04:08:14.065Z,83.38
2018-06-30T04:10:43.115Z,82.32
2018-06-30T04:13:12.436Z,82.60
2018-06-30T04:15:41.800Z,82.95
2018-06-30T04:18:11.168Z,83.39
2018-06-30T04:20:40.520Z,83.03
2018-06-30T04:23:09.845Z,82.45
2018-06-30T04:25:39.179Z,83.00
2018-06-30T04:28:08.495Z,82.13
2018-06-30T04:30:37.880Z,82.43
2018-06-30T04:33:07.799Z,81.95
2018-06-30T04:35:37.232Z,81.89
2018-06-30T04:38:06.727Z,82.36
2018-06-30T04:40:36.070Z,80.95
2018-06-30T04:43:05.583Z,80.66
2018-06-30T04:45:34.953Z,80.57
2018-06-30T04:48:04.343Z,80.96
2018-06-30T04:50:33.685Z,80.16
2018-06-30T04:53:03.000Z,80.02
2018-06-30T04:55:32.339Z,79.97
2018-06-30T04:58:01.685Z,80.08
2018-06-30T05:00:31.014Z,79.23
2018-06-30T05:03:00.341Z,79.26
2018-06-30T05:05:29.679Z,79.49
2018-06-30T05:07:59.089Z,79.28
2018-06-30T05:10:28.445Z,78.41
2018-06-30T05:12:57.854Z,78.73
2018-06-30T05:15:27.133Z,77.45
2018-06-30T05:17:57.005Z,77.96
2018-06-30T05:20:26.635Z,78.20
2018-06-30T05:22:56.311Z,77.83
2018-06-30T05:25:26.172Z,78.20
2018-06-30T05:27:55.891Z,77.34
2018-06-30T05:30:25.603Z,77.19
2018-06-30T05:32:55.411Z,76.63
2018-06-30T05:35:25.050Z,77.09
2018-06-30T05:37:54.932Z,77.33
2018-06-30T05:40:24.316Z,76.70
2018-06-30T05:42:53.653Z,76.51
2018-06-30T05:45:22.992Z,77.06
2018-06-30T05:47:52.348Z,76.57
2018-06-30T05:50:21.796Z,76.68
2018-06-30T05:52:51.156Z,75.22
2018-06-30T05:55:20.483Z,75.73
2018-06-30T05:57:49.795Z,75.32
2018-06-30T06:00:19.133Z,75.44
2018-06-30T06:02:48.202Z,73.97
2018-06-30T06:05:17.529Z,74.66
2018-06-30T06:07:46.873Z,73.55
2018-06-30T06:10:16.378Z,73.36
2018-06-30T06:12:45.719Z,74.19
2018-06-30T06:15:15.015Z,74.37
2018-06-30T06:17:44.473Z,73.40
2018-06-30T06:20:13.854Z,73.26
2018-06-30T06:22:43.193Z,71.62
2018-06-30T06:25:12.536Z,72.38
2018-06-30T06:27:41.874Z,72.78
2018-06-30T06:30:11.260Z,71.36
2018-06-30T06:32:40.676Z,71.64
2018-06-30T06:35:09.919Z,70.47
2018-06-30T06:37:39.244Z,71.10
2018-06-30T06:47:30.146Z,71.03
2018-06-30T06:49:59.467Z,70.34
2018-06-30T06:52:28.784Z,70.08
2018-06-30T06:54:58.112Z,69.77
2018-06-30T06:57:27.471Z,68.72
2018-06-30T06:59:56.790Z,69.26
2018-06-30T07:02:26.146Z,69.38
2018-06-30T07:04:55.487Z,69.60
2018-06-30T07:07:24.817Z,70.22
2018-06-30T07:09:54.312Z,68.99
2018-06-30T07:12:23.447Z,69.48
2018-06-30T07:14:52.788Z,68.59
2018-06-30T07:17:22.132Z,69.85
2018-06-30T07:19:51.449Z,68.22
2018-06-30T07:22:20.823Z,64.34
2018-06-30T07:24:50.128Z,64.41
2018-06-30T07:27:19.471Z,64.54
2018-06-30T07:29:48.783Z,64.87
2018-06-30T07:32:18.147Z,63.70
2018-06-30T07:34:47.480Z,63.28
2018-06-30T07:37:16.880Z,63.09
2018-06-30T07:39:46.180Z,63.00
2018-06-30T07:42:15.562Z,62.65
2018-06-30T07:44:44.877Z,61.49
2018-06-30T07:47:14.224Z,62.13
2018-06-30T07:49:43.669Z,62.63
2018-06-30T07:52:12.971Z,62.74
2018-06-30T07:54:42.303Z,61.28
2018-06-30T07:57:11.703Z,62.82
2018-06-30T07:59:41.045Z,62.01
2018-06-30T08:02:10.467Z,61.12
2018-06-30T08:04:39.716Z,62.93
2018-06-30T08:07:09.048Z,62.31
2018-06-30T08:09:38.576Z,60.82
2018-06-30T08:12:07.920Z,61.32
2018-06-30T08:14:37.337Z,59.40
2018-06-30T08:17:06.792Z,60.54
2018-06-30T08:19:36.120Z,60.24
2018-06-30T08:22:05.552Z,60.93
2018-06-30T08:24:34.872Z,60.52
2018-06-30T08:27:04.245Z,58.82
2018-06-30T08:29:33.562Z,58.97
2018-06-30T08:32:02.897Z,60.14
2018-06-30T08:34:32.304Z,59.19
2018-06-30T08:37:01.616Z,58.89
2018-06-30T08:39:30.968Z,58.54
2018-06-30T08:42:00.286Z,57.25
2018-06-30T08:44:29.628Z,58.04
2018-06-30T08:46:58.972Z,58.81
2018-06-30T08:49:28.295Z,59.86
2018-06-30T08:51:57.623Z,57.31
2018-06-30T08:54:26.946Z,55.92
2018-06-30T08:56:56.356Z,57.77
2018-06-30T08:59:25.687Z,56.98
2018-06-30T09:01:54.996Z,55.27
2018-06-30T09:04:24.423Z,54.46
2018-06-30T09:06:53.743Z,55.09
2018-06-30T09:09:23.060Z,56.49
2018-06-30T09:11:52.401Z,55.91
2018-06-30T09:14:21.711Z,55.80
2018-06-30T09:16:51.056Z,55.51
2018-06-30T09:19:20.395Z,54.08
2018-06-30T09:21:49.729Z,54.87
2018-06-30T09:24:19.077Z,53.42
2018-06-30T09:26:48.562Z,53.70
2018-06-30T09:29:17.903Z,53.09
2018-06-30T09:31:47.249Z,51.99
2018-06-30T09:34:16.575Z,50.65
2018-06-30T09:36:45.941Z,49.60
2018-06-30T09:39:15.245Z,49.22
2018-06-30T09:41:44.581Z,48.67
2018-06-30T09:44:13.937Z,49.84
2018-06-30T09:46:43.347Z,51.27
2018-06-30T09:49:12.679Z,50.73
2018-06-30T09:51:41.996Z,49.42
2018-06-30T09:54:11.323Z,49.55
2018-06-30T09:56:40.644Z,49.00
2018-06-30T09:59:10.007Z,51.26
2018-06-30T10:01:39.377Z,47.98
2018-06-30T10:04:08.719Z,47.03
2018-06-30T10:06:38.057Z,47.03
2018-06-30T10:09:10.438Z,48.21
2018-06-30T10:11:40.255Z,46.24
2018-06-30T10:14:09.584Z,48.45
2018-06-30T10:16:38.914Z,48.83
2018-06-30T10:19:08.274Z,45.78
2018-06-30T10:21:37.593Z,47.23
2018-06-30T10:24:06.956Z,46.96
2018-06-30T10:26:36.289Z,46.77
2018-06-30T10:29:05.615Z,46.39
2018-06-30T10:31:34.955Z,46.35
2018-06-30T10:34:04.316Z,48.20
2018-06-30T10:36:33.729Z,48.13
2018-06-30T10:39:03.084Z,47.32
2018-06-30T10:41:32.437Z,44.10
2018-06-30T10:44:01.774Z,45.18
2018-06-30T10:46:31.137Z,43.75
2018-06-30T10:49:00.487Z,44.74
2018-06-30T10:51:29.823Z,44.07
2018-06-30T10:53:59.188Z,43.83
2018-06-30T10:56:28.516Z,45.28
2018-06-30T10:58:57.861Z,43.54
2018-06-30T11:01:27.199Z,42.54
2018-06-30T11:03:56.576Z,41.72
2018-06-30T11:06:25.921Z,41.80
2018-06-30T11:08:55.477Z,42.48
2018-06-30T11:11:24.850Z,43.61
2018-06-30T11:13:54.587Z,42.70
2018-06-30T11:16:23.921Z,40.33
2018-06-30T11:18:53.251Z,40.58
2018-06-30T11:21:22.676Z,40.62
2018-06-30T11:23:52.017Z,41.00
2018-06-30T11:26:21.392Z,39.92
2018-06-30T11:28:50.885Z,40.35
2018-06-30T11:31:20.286Z,39.76
2018-06-30T11:33:49.672Z,38.21
2018-06-30T11:36:18.941Z,37.46
2018-06-30T11:38:48.278Z,39.60
2018-06-30T11:41:17.603Z,38.59
2018-06-30T11:43:46.960Z,37.62
2018-06-30T11:46:16.282Z,36.46
2018-06-30T11:48:45.628Z,37.91
2018-06-30T11:51:14.966Z,35.89
2018-06-30T11:53:44.312Z,35.95
2018-06-30T11:56:13.719Z,36.26
2018-06-30T11:58:43.052Z,35.95
2018-06-30T12:01:12.388Z,35.15
2018-06-30T12:03:41.751Z,34.57
2018-06-30T12:06:11.089Z,36.66
2018-06-30T12:08:40.439Z,34.98
2018-06-30T12:11:09.772Z,34.46
2018-06-30T12:13:39.178Z,35.02
2018-06-30T12:16:08.617Z,35.64
2018-06-30T12:18:37.941Z,33.35
2018-06-30T12:21:07.392Z,34.62
2018-06-30T12:23:36.956Z,35.12
2018-06-30T12:26:06.446Z,33.59
2018-06-30T12:28:42.294Z,33.50
2018-06-30T12:31:11.650Z,32.52
2018-06-30T12:33:41.025Z,33.01
2018-06-30T12:36:10.376Z,33.78
2018-06-30T12:38:39.736Z,33.10
2018-06-30T12:41:09.072Z,34.00
2018-06-30T12:43:38.404Z,33.18
2018-06-30T12:46:07.785Z,33.53
2018-06-30T12:48:37.161Z,30.59
2018-06-30T12:51:06.679Z,33.84
2018-06-30T12:53:36.027Z,31.28
2018-06-30T12:56:05.925Z,31.13
2018-06-30T12:58:35.264Z,30.52
2018-06-30T13:01:04.630Z,31.01
2018-06-30T13:03:33.719Z,33.59
2018-06-30T13:06:03.072Z,31.61
2018-06-30T13:08:32.399Z,32.51
2018-06-30T13:11:01.780Z,29.80
2018-06-30T13:13:31.100Z,30.59
2018-06-30T13:16:00.519Z,32.98
2018-06-30T13:18:29.885Z,32.45
2018-06-30T13:20:59.887Z,32.71
2018-06-30T13:23:29.236Z,32.22
2018-06-30T13:25:58.565Z,29.17
2018-06-30T13:28:27.972Z,29.43
2018-06-30T13:30:57.317Z,31.93
2018-06-30T13:33:26.660Z,30.75
2018-06-30T13:35:56.060Z,31.13
2018-06-30T13:38:26.261Z,28.94
2018-06-30T13:40:55.667Z,30.69
2018-06-30T13:43:25.457Z,29.57
2018-06-30T13:45:54.804Z,29.77
2018-06-30T13:48:24.200Z,28.54
2018-06-30T13:50:53.569Z,28.43
2018-06-30T13:53:23.033Z,28.63
2018-06-30T13:55:52.396Z,27.98
2018-06-30T13:58:21.775Z,28.49
2018-06-30T14:00:51.138Z,28.27
2018-06-30T14:03:20.501Z,27.12
2018-06-30T14:05:49.856Z,27.42
2018-06-30T14:08:19.407Z,24.44
2018-06-30T14:10:49.069Z,24.45
2018-06-30T14:13:18.404Z,24.11
2018-06-30T14:15:47.776Z,23.58
2018-06-30T14:18:17.161Z,22.59
2018-06-30T14:20:46.462Z,22.22
2018-06-30T14:23:15.928Z,21.83
2018-06-30T14:25:45.399Z,22.12
2018-06-30T14:28:14.972Z,22.48
2018-06-30T14:30:44.339Z,21.56
2018-06-30T14:33:13.673Z,23.08
2018-06-30T14:35:43.012Z,22.17
2018-06-30T14:38:12.392Z,22.05
2018-06-30T14:40:41.744Z,22.76
2018-06-30T14:43:11.099Z,22.45
2018-06-30T14:45:40.459Z,21.65
2018-06-30T14:48:09.793Z,21.42
2018-06-30T14:50:39.158Z,21.56
2018-06-30T14:53:08.716Z,20.64
2018-06-30T14:55:38.061Z,20.44
2018-06-30T14:58:07.779Z,20.64
2018-06-30T15:00:37.231Z,21.13
2018-06-30T15:03:06.664Z,20.74
2018-06-30T15:05:35.997Z,21.27
2018-06-30T15:08:05.396Z,20.00
2018-06-30T15:10:34.785Z,19.92
2018-06-30T15:13:04.160Z,20.11
2018-06-30T15:15:33.699Z,20.17
2018-06-30T15:18:03.053Z,20.04
2018-06-30T15:20:32.409Z,19.71
2018-06-30T15:23:01.767Z,19.81
2018-06-30T15:25:31.120Z,20.38
2018-06-30T15:28:00.451Z,21.19
2018-06-30T15:30:29.763Z,21.10
2018-06-30T15:32:59.086Z,20.05
2018-06-30T15:35:28.432Z,19.96
2018-06-30T15:37:57.838Z,19.71
2018-06-30T15:40:27.161Z,19.16
2018-06-30T15:42:56.501Z,19.74
2018-06-30T15:45:25.868Z,20.15
2018-06-30T15:47:55.192Z,20.26
2018-06-30T15:50:24.552Z,20.09
2018-06-30T15:52:53.898Z,21.22
2018-06-30T15:55:23.246Z,20.71
2018-06-30T15:57:52.585Z,20.75
2018-06-30T16:00:21.903Z,20.92
2018-06-30T16:02:51.240Z,20.00
2018-06-30T16:05:20.554Z,20.51
2018-06-30T16:07:49.890Z,21.02
2018-06-30T16:10:19.229Z,20.51
2018-06-30T16:12:48.667Z,19.22
2018-06-30T16:15:18.000Z,19.31
2018-06-30T16:17:47.436Z,19.98
2018-06-30T16:20:16.777Z,18.98
2018-06-30T16:22:46.136Z,18.93
2018-06-30T16:25:15.476Z,19.38
2018-06-30T16:27:44.833Z,18.29
2018-06-30T16:30:14.177Z,19.55
2018-06-30T16:32:43.724Z,19.10
2018-06-30T16:35:13.112Z,18.54
2018-06-30T16:37:42.422Z,18.89
2018-06-30T16:40:11.806Z,18.55
2018-06-30T16:42:41.196Z,19.55
2018-06-30T16:45:10.559Z,19.29
2018-06-30T16:47:40.037Z,19.16
2018-06-30T16:50:09.401Z,18.15
2018-06-30T16:52:38.756Z,18.26
2018-06-30T16:55:08.148Z,18.25
2018-06-30T16:57:37.501Z,18.68
2018-06-30T17:00:08.137Z,18.86
2018-06-30T17:02:37.489Z,18.13
2018-06-30T17:05:07.205Z,17.39
2018-06-30T17:07:36.575Z,17.60
2018-06-30T17:10:06.033Z,18.46
2018-06-30T17:12:35.424Z,18.61
2018-06-30T17:15:05.030Z,18.87
2018-06-30T17:17:34.288Z,18.26
2018-06-30T17:20:03.694Z,18.52
2018-06-30T17:22:32.992Z,19.75
2018-06-30T17:25:02.329Z,19.00
2018-06-30T17:27:31.671Z,19.00
2018-06-30T17:30:01.025Z,19.11
2018-06-30T17:32:30.452Z,19.11
2018-06-30T17:34:59.827Z,19.67
2018-06-30T17:37:29.152Z,19.41
2018-06-30T17:39:58.480Z,19.86
2018-06-30T17:42:27.860Z,19.56
2018-06-30T17:44:57.199Z,19.35
2018-06-30T17:47:26.529Z,19.00
2018-06-30T17:49:55.862Z,19.41
2018-06-30T17:52:25.208Z,19.89
2018-06-30T17:54:54.816Z,20.60
2018-06-30T17:57:24.143Z,20.91
2018-06-30T17:59:53.467Z,20.85
2018-06-30T18:02:22.874Z,23.99
2018-06-30T18:04:52.237Z,25.20
2018-06-30T18:07:21.576Z,25.71
2018-06-30T18:09:50.900Z,26.38
2018-06-30T18:12:20.520Z,28.14
2018-06-30T18:14:49.861Z,29.21
2018-06-30T18:17:19.203Z,29.43
2018-06-30T18:19:48.531Z,29.74
2018-06-30T18:22:17.880Z,30.67
2018-06-30T18:24:47.008Z,30.82
2018-06-30T18:27:16.324Z,30.41
2018-06-30T18:29:45.731Z,31.61
2018-06-30T18:32:15.069Z,31.42
2018-06-30T18:34:44.421Z,32.32
2018-06-30T18:37:14.396Z,32.08
2018-06-30T18:39:43.737Z,33.00
2018-06-30T18:42:13.077Z,33.21
2018-06-30T18:44:42.514Z,35.40
2018-06-30T18:47:11.841Z,33.77
2018-06-30T18:49:41.181Z,33.26
2018-06-30T18:52:10.532Z,34.52
2018-06-30T18:54:39.864Z,34.29
2018-06-30T18:57:09.204Z,36.52
2018-06-30T18:59:38.549Z,35.21
2018-06-30T19:02:07.957Z,35.58
2018-06-30T19:04:37.305Z,36.91
2018-06-30T19:07:06.664Z,36.37
2018-06-30T19:09:36.000Z,36.84
2018-06-30T19:12:05.347Z,36.57
2018-06-30T19:14:34.740Z,37.55
2018-06-30T19:17:03.830Z,38.14
2018-06-30T19:19:33.205Z,37.67
2018-06-30T19:22:02.553Z,38.05
2018-06-30T19:24:31.997Z,38.10
2018-06-30T19:27:01.366Z,38.25
2018-06-30T19:29:30.769Z,39.62
2018-06-30T19:32:00.118Z,38.11
2018-06-30T19:34:29.469Z,38.91
2018-06-30T19:36:58.833Z,39.22
2018-06-30T19:39:28.155Z,39.80
2018-06-30T19:41:57.481Z,40.55
2018-06-30T19:44:26.824Z,40.11
2018-06-30T19:46:56.151Z,42.43
2018-06-30T19:49:25.578Z,40.43
2018-06-30T19:51:54.875Z,41.66
2018-06-30T19:54:24.363Z,41.35
2018-06-30T19:57:37.992Z,42.82
2018-06-30T20:00:07.547Z,41.95
2018-06-30T20:02:36.937Z,41.87
2018-06-30T20:05:06.356Z,43.79
2018-06-30T20:07:40.994Z,43.46
2018-06-30T20:10:10.323Z,43.84
2018-06-30T20:12:39.691Z,43.23
2018-06-30T20:15:09.029Z,44.07
2018-06-30T20:17:38.347Z,43.84
2018-06-30T20:20:07.895Z,43.57
2018-06-30T20:22:37.312Z,44.42
2018-06-30T20:25:07.039Z,44.92
2018-06-30T20:27:36.444Z,45.81
2018-06-30T20:30:06.772Z,45.54
2018-06-30T20:32:36.092Z,45.82
2018-06-30T20:35:05.408Z,45.73
2018-06-30T20:37:34.745Z,45.53
2018-06-30T20:40:04.103Z,46.36
2018-06-30T20:42:33.424Z,45.61
2018-06-30T20:45:02.813Z,47.17
2018-06-30T20:47:32.169Z,45.58
2018-06-30T20:50:01.554Z,47.47
2018-06-30T20:52:30.865Z,48.06
2018-06-30T20:55:00.208Z,46.80
2018-06-30T20:57:29.633Z,45.90
2018-06-30T20:59:59.016Z,45.38
2018-06-30T21:02:28.351Z,45.37
2018-06-30T21:04:57.712Z,45.76
2018-06-30T21:07:27.060Z,46.84
2018-06-30T21:09:56.400Z,46.76
2018-06-30T21:12:25.749Z,48.74
2018-06-30T21:14:55.100Z,46.76
2018-06-30T21:17:24.471Z,47.02
2018-06-30T21:19:53.756Z,48.27
2018-06-30T21:22:23.100Z,46.35
2018-06-30T21:24:52.427Z,45.42
2018-06-30T21:27:21.729Z,46.11
2018-06-30T21:29:51.076Z,46.11
2018-06-30T21:32:20.373Z,45.86
2018-06-30T21:34:49.715Z,45.93
2018-06-30T21:37:19.065Z,46.17
2018-06-30T21:39:48.420Z,45.51
2018-06-30T21:42:17.763Z,46.41
2018-06-30T21:44:47.087Z,46.83
2018-06-30T21:47:16.507Z,46.08
2018-06-30T21:49:45.839Z,47.77
2018-06-30T21:52:15.183Z,47.24
2018-06-30T21:54:44.547Z,46.77
2018-06-30T21:57:13.980Z,46.30
2018-06-30T21:59:43.397Z,47.62
2018-06-30T22:02:12.752Z,47.29
2018-06-30T22:04:42.427Z,46.73
2018-06-30T22:07:12.666Z,47.31
2018-06-30T22:09:42.353Z,47.66
2018-06-30T22:12:12.423Z,47.50
2018-06-30T22:14:42.050Z,47.97
2018-06-30T22:17:11.774Z,47.96
2018-06-30T22:19:41.383Z,47.89
2018-06-30T22:22:11.141Z,47.67
2018-06-30T22:24:40.814Z,48.29
2018-06-30T22:27:10.490Z,47.66
2018-06-30T22:29:40.150Z,49.36
2018-06-30T22:32:09.803Z,48.68
2018-06-30T22:34:39.523Z,49.67
2018-06-30T22:37:09.153Z,48.46
2018-06-30T22:40:23.306Z,48.82
2018-06-30T22:42:52.990Z,48.34
2018-06-30T22:45:22.642Z,49.10
2018-06-30T22:47:52.347Z,48.71
2018-06-30T22:50:21.950Z,50.28
2018-06-30T22:52:51.584Z,50.16
2018-06-30T22:55:21.265Z,51.24
2018-06-30T22:57:50.873Z,50.88
2018-06-30T23:00:20.532Z,50.25
2018-06-30T23:02:50.202Z,49.85
2018-06-30T23:05:19.895Z,50.93
2018-06-30T23:07:49.590Z,50.75
2018-06-30T23:10:19.224Z,50.64
2018-06-30T23:12:48.852Z,52.65
2018-06-30T23:15:18.523Z,51.80
2018-06-30T23:17:48.249Z,52.27
2018-06-30T23:20:17.932Z,51.70
2018-06-30T23:23:01.743Z,52.22
2018-06-30T23:25:32.389Z,52.66
2018-06-30T23:28:02.282Z,52.51
2018-06-30T23:30:32.356Z,53.24
2018-06-30T23:33:01.982Z,53.01
2018-06-30T23:35:32.528Z,54.41
2018-06-30T23:38:02.883Z,52.99
2018-06-30T23:40:32.597Z,54.30
2018-06-30T23:43:02.205Z,53.93
2018-06-30T23:45:31.889Z,54.52
2018-06-30T23:48:01.228Z,54.34
2018-06-30T23:50:30.593Z,55.77
2018-06-30T23:53:00.051Z,56.74
2018-06-30T23:55:29.403Z,56.16
2018-06-30T23:57:58.723Z,57.33
